Time;durP1;ratioP1;P1;durP2;ratioP2;P2;SDS_P1;SDS_P2;PMS_P1;PMS_P2;Temp;Humidity;BMP_temperature;BMP_pressure;BME280_temperature;BME280_humidity;BME280_pressure;Samples;Min_cycle;Max_cycle;Signal;HPM_P1;HPM_P2
2020/12/30 00:01:32;;;;;;;;;;;;;;;7.36;82.57;92755.00;5115779;28;20040;-85
2020/12/30 00:04:01;;;;;;;0.73;0.30;;;;;;;7.25;82.77;92750.53;5116182;28;19926;-86
2020/12/30 00:06:29;;;;;;;2.05;0.80;;;;;;;7.33;83.00;92748.53;5116047;28;20055;-86
2020/12/30 00:08:56;;;;;;;0.70;0.30;;;;;;;7.29;82.55;92746.59;5114206;28;20413;-85
2020/12/30 00:11:22;;;;;;;1.10;0.57;;;;;;;7.33;82.99;92766.41;5114022;28;20104;-85
2020/12/30 00:13:48;;;;;;;;;;;;;;;7.36;82.79;92765.22;5113427;28;20044;-90
2020/12/30 00:16:15;;;;;;;4.57;1.05;;;;;;;7.33;83.09;92765.66;5092702;28;19920;-85
2020/12/30 00:18:40;;;;;;;;;;;;;;;7.32;83.15;92764.09;5093849;28;20059;-86
2020/12/30 00:21:07;;;;;;;2.97;1.10;;;;;;;7.26;83.00;92767.44;5093677;28;19920;-84
2020/12/30 00:23:33;;;;;;;2.85;0.70;;;;;;;7.21;83.05;92760.34;5093604;28;20052;-84
2020/12/30 00:26:00;;;;;;;1.20;0.60;;;;;;;7.20;83.01;92749.38;5093621;28;20441;-86
2020/12/30 00:28:26;;;;;;;1.20;0.50;;;;;;;7.24;82.66;92757.41;5093436;28;20079;-85
2020/12/30 00:30:52;;;;;;;;;;;;;;;7.22;82.72;92760.16;5093807;28;20044;-85
2020/12/30 00:33:19;;;;;;;1.17;0.60;;;;;;;7.20;82.97;92751.13;5100577;28;19965;-86
2020/12/30 00:35:45;;;;;;;;;;;;;;;7.21;82.67;92756.03;5114261;28;20058;-86
2020/12/30 00:38:11;;;;;;;2.70;0.68;;;;;;;7.12;83.00;92753.91;5113262;28;19920;-85
2020/12/30 00:40:37;;;;;;;1.33;0.93;;;;;;;7.09;83.04;92750.75;5113825;28;20040;-86
2020/12/30 00:43:04;;;;;;;;;;;;;;;7.07;83.37;92741.72;5114165;28;20060;-85
2020/12/30 00:45:30;;;;;;;1.52;0.57;;;;;;;7.01;83.92;92743.31;5113749;28;19919;-86
2020/12/30 00:47:57;;;;;;;1.90;0.43;;;;;;;7.00;84.07;92741.75;5113392;28;20046;-86
2020/12/30 00:50:23;;;;;;;0.90;0.30;;;;;;;6.97;84.04;92746.44;5113676;28;20055;-85
2020/12/30 00:52:49;;;;;;;;;;;;;;;6.97;84.04;92741.34;5114023;28;20413;-86
2020/12/30 00:55:16;;;;;;;1.10;0.20;;;;;;;6.94;84.46;92742.50;5113244;28;20001;-85
2020/12/30 00:57:42;;;;;;;0.60;0.30;;;;;;;6.91;84.09;92733.47;5113110;28;20371;-86
2020/12/30 01:00:09;;;;;;;;;;;;;;;6.95;84.19;92733.91;5113857;28;20044;-86
2020/12/30 01:02:35;;;;;;;3.00;0.80;;;;;;;6.93;84.40;92740.94;5113087;28;19977;-86
2020/12/30 01:05:01;;;;;;;;;;;;;;;6.88;84.33;92736.44;5113626;28;20093;-86
2020/12/30 01:07:28;;;;;;;2.20;1.30;;;;;;;6.64;85.36;92730.97;5113274;28;19923;-86
2020/12/30 01:09:54;;;;;;;;;;;;;;;6.74;84.89;92733.13;5113650;28;20406;-85
2020/12/30 01:12:20;;;;;;;2.17;0.93;;;;;;;6.69;85.21;92725.28;5113022;28;19920;-86
2020/12/30 01:14:47;;;;;;;2.05;0.80;;;;;;;6.75;85.10;92723.72;5113080;28;20490;-86
2020/12/30 01:17:14;;;;;;;4.93;1.05;;;;;;;6.76;84.62;92704.84;5112719;28;20093;-85
2020/12/30 01:19:40;;;;;;;3.40;1.02;;;;;;;6.76;84.78;92692.09;5113235;28;20089;-86
2020/12/30 01:22:07;;;;;;;;;;;;;;;6.79;85.13;92696.78;5113388;28;20043;-85
2020/12/30 01:24:33;;;;;;;2.13;0.98;;;;;;;6.80;84.59;92694.03;5111842;28;19923;-84
2020/12/30 01:26:59;;;;;;;0.93;0.60;;;;;;;6.80;84.84;92696.59;5112799;28;20047;-85
2020/12/30 01:29:25;;;;;;;;;;;;;;;6.85;84.60;92685.78;5112918;28;20494;-85
2020/12/30 01:31:51;;;;;;;4.95;0.40;;;;;;;6.81;84.69;92676.97;5112535;28;19924;-86
2020/12/30 01:34:19;;;;;;;0.30;0.13;;;;;;;6.87;84.68;92683.81;5112771;28;20056;-85
2020/12/30 01:36:45;;;;;;;1.98;1.05;;;;;;;6.90;83.95;92673.19;5112487;28;20067;-84
2020/12/30 01:39:11;;;;;;;;;;;;;;;6.95;83.60;92663.16;5113325;28;20047;-85
2020/12/30 01:41:37;;;;;;;0.65;0.40;;;;;;;6.93;84.02;92669.47;5112328;28;19919;-84
2020/12/30 01:44:04;;;;;;;;;;;;;;;6.96;83.03;92669.06;5113084;28;20055;-84
2020/12/30 01:46:36;;;;;;;0.38;0.20;;;;;;;6.97;82.93;92657.06;5112074;28;19997;-85
2020/12/30 01:49:04;;;;;;;0.43;0.30;;;;;;;7.08;82.07;92662.34;5112280;28;20082;-85
2020/12/30 01:51:32;;;;;;;0.65;0.35;;;;;;;7.16;81.06;92661.34;5112435;28;20052;-86
2020/12/30 01:54:00;;;;;;;0.22;0.13;;;;;;;7.21;80.29;92650.50;5112062;28;20094;-84
2020/12/30 01:56:30;;;;;;;0.40;0.40;;;;;;;7.22;80.11;92657.97;5111887;28;20051;-85
2020/12/30 01:58:56;;;;;;;0.60;0.20;;;;;;;7.35;79.53;92658.91;5111950;28;20413;-85
2020/12/30 02:01:24;;;;;;;;;;;;;;;7.46;77.99;92654.94;5112468;28;20491;-86
2020/12/30 02:03:54;;;;;;;1.00;0.40;;;;;;;7.40;78.00;92659.09;5111761;28;19926;-84
2020/12/30 02:06:21;;;;;;;7.45;1.00;;;;;;;7.41;77.86;92652.97;5111815;28;20052;-86
2020/12/30 02:08:48;;;;;;;;;;;;;;;7.49;77.42;92665.53;5112417;28;20048;-86
2020/12/30 02:11:15;;;;;;;1.00;0.30;;;;;;;7.49;78.20;92660.44;5111633;28;19920;-87
2020/12/30 02:13:41;;;;;;;1.85;1.10;;;;;;;7.51;78.15;92669.66;5112000;28;20051;-85
2020/12/30 02:16:07;;;;;;;;;;;;;;;7.48;78.95;92669.09;5112345;28;20043;-87
2020/12/30 02:18:35;;;;;;;0.20;0.10;;;;;;;7.31;78.56;92666.19;5111758;28;19973;-88
2020/12/30 02:21:02;;;;;;;3.13;0.25;;;;;;;7.32;79.10;92679.78;5111700;28;20044;-85
2020/12/30 02:23:29;;;;;;;;;;;;;;;7.11;79.87;92680.81;5111975;28;20157;-86
2020/12/30 02:25:56;;;;;;;0.47;0.20;;;;;;;7.11;79.32;92683.34;5111495;28;19927;-85
2020/12/30 02:28:22;;;;;;;2.47;1.48;;;;;;;6.92;80.35;92668.69;5111400;28;20048;-87
2020/12/30 02:30:48;;;;;;;;;;;;;;;7.22;80.96;92696.31;5111859;28;20052;-86
2020/12/30 02:33:14;;;;;;;1.92;0.93;;;;;;;7.27;80.65;92682.91;5111574;28;19931;-86
2020/12/30 02:35:42;;;;;;;;;;;;;;;7.11;80.78;92676.50;5111826;28;20066;-86
2020/12/30 02:38:09;;;;;;;4.13;1.05;;;;;;;7.01;80.69;92674.38;5111445;28;20419;-85
2020/12/30 02:40:35;;;;;;;;;;;;;;;7.22;79.44;92680.19;5111714;28;20044;-85
2020/12/30 02:43:04;;;;;;;0.45;0.30;;;;;;;7.37;79.53;92679.16;5111327;28;20006;-85
2020/12/30 02:45:36;;;;;;;2.20;1.25;;;;;;;7.44;79.00;92683.25;5111074;28;20048;-85
2020/12/30 02:48:03;;;;;;;1.80;0.57;;;;;;;7.57;78.60;92682.41;5111200;28;20071;-86
2020/12/30 02:50:29;;;;;;;;;;;;;;;7.65;77.80;92678.03;5111380;28;20055;-86
2020/12/30 02:52:57;;;;;;;0.30;0.20;;;;;;;7.66;77.88;92672.75;5110935;28;19920;-85
2020/12/30 02:55:23;;;;;;;4.05;0.77;;;;;;;7.70;77.85;92666.22;5111383;28;20402;-86
2020/12/30 02:57:49;;;;;;;;;;;;;;;7.80;77.78;92670.09;5111835;28;20044;-85
2020/12/30 03:00:16;;;;;;;0.50;0.20;;;;;;;7.81;77.12;92671.66;5110978;28;19969;-86
2020/12/30 03:02:48;;;;;;;0.98;0.50;;;;;;;7.84;76.69;92669.50;5111205;28;20048;-85
2020/12/30 03:05:15;;;;;;;0.95;0.22;;;;;;;7.85;76.26;92662.59;5111020;28;20051;-86
2020/12/30 03:07:41;;;;;;;;;;;;;;;7.88;76.31;92662.97;5111459;28;20134;-86
2020/12/30 03:10:07;;;;;;;0.40;0.28;;;;;;;7.91;76.70;92654.09;5110882;28;19919;-86
2020/12/30 03:12:33;;;;;;;;;;;;;;;7.93;76.16;92654.69;5111430;28;20043;-85
2020/12/30 03:14:59;;;;;;;0.43;0.22;;;;;;;7.89;76.48;92653.53;5110738;28;19926;-86
2020/12/30 03:17:27;;;;;;;;;;;;;;;7.98;76.18;92659.97;5111228;28;20051;-85
2020/12/30 03:19:54;;;;;;;2.40;0.30;;;;;;;7.89;76.21;92636.44;5110737;28;20392;-87
2020/12/30 03:22:20;;;;;;;0.93;0.20;;;;;;;7.93;76.70;92646.22;5111488;28;21089;-87
2020/12/30 03:24:46;;;;;;;0.70;0.28;;;;;;;7.99;77.29;92647.94;5111051;28;20052;-87
2020/12/30 03:27:13;;;;;;;2.05;0.73;;;;;;;7.97;77.17;92653.28;5110843;28;20048;-86
2020/12/30 03:29:39;;;;;;;4.60;1.27;;;;;;;7.97;76.96;92647.38;5110969;28;20040;-87
2020/12/30 03:32:05;;;;;;;1.73;0.70;;;;;;;7.92;77.08;92658.22;5111250;28;20050;-87
2020/12/30 03:34:32;;;;;;;1.40;0.52;;;;;;;7.94;76.81;92663.94;5110745;28;20108;-87
2020/12/30 03:36:59;;;;;;;1.83;0.60;;;;;;;7.84;77.41;92663.59;5111123;28;20116;-86
2020/12/30 03:39:25;;;;;;;;;;;;;;;7.78;78.56;92667.75;5111560;28;20053;-87
2020/12/30 03:41:51;;;;;;;1.10;0.50;;;;;;;7.72;77.88;92666.81;5110934;28;19920;-88
2020/12/30 03:44:17;;;;;;;;;;;;;;;7.87;77.02;92666.50;5111254;28;20055;-87
2020/12/30 03:46:43;;;;;;;2.70;0.52;;;;;;;7.88;77.40;92662.97;5110695;28;19924;-86
2020/12/30 03:49:10;;;;;;;0.70;0.30;;;;;;;7.72;77.53;92635.34;5113808;28;20044;-87
2020/12/30 03:51:36;;;;;;;;;;;;;;;7.92;76.69;92673.56;5113573;27;20047;-87
2020/12/30 03:54:04;;;;;;;1.15;0.52;;;;;;;7.86;76.76;92664.16;5114605;28;19919;-86
2020/12/30 03:56:31;;;;;;;0.73;0.30;;;;;;;7.93;76.42;92664.13;5114531;28;20044;-87
2020/12/30 03:58:57;;;;;;;;;;;;;;;7.97;76.37;92666.06;5114817;28;20040;-87
2020/12/30 04:01:23;;;;;;;1.33;0.75;;;;;;;7.97;76.68;92665.28;5114229;28;20405;-87
2020/12/30 04:03:49;;;;;;;1.42;0.55;;;;;;;7.91;78.10;92671.22;5114009;28;20054;-87
2020/12/30 04:06:22;;;;;;;1.25;0.55;;;;;;;7.95;77.79;92668.03;5114111;28;20051;-86
2020/12/30 04:08:49;;;;;;;1.92;0.30;;;;;;;7.99;77.87;92673.53;5114351;28;20101;-87
2020/12/30 04:11:16;;;;;;;1.42;0.55;;;;;;;7.98;78.15;92661.72;5114311;28;20407;-86
2020/12/30 04:13:42;;;;;;;0.70;0.32;;;;;;;7.71;78.17;92619.22;5114148;28;20055;-87
2020/12/30 04:16:08;;;;;;;0.40;0.20;;;;;;;7.98;78.89;92665.09;5113934;28;20040;-86
2020/12/30 04:18:34;;;;;;;;;;;;;;;7.96;79.23;92659.38;5114331;28;20050;-86
2020/12/30 04:21:01;;;;;;;0.88;0.40;;;;;;;7.95;79.49;92664.69;5107531;28;20294;-88
2020/12/30 04:23:27;;;;;;;0.98;0.43;;;;;;;7.88;79.69;92665.53;5093555;28;20429;-86
2020/12/30 04:25:54;;;;;;;;;;;;;;;7.91;80.03;92663.56;5094104;28;20075;-87
2020/12/30 04:28:20;;;;;;;1.05;0.30;;;;;;;7.88;79.98;92665.53;5093209;28;19920;-86
2020/12/30 04:30:46;;;;;;;;;;;;;;;7.89;79.87;92656.09;5093599;28;20097;-86
2020/12/30 04:33:13;;;;;;;1.55;0.75;;;;;;;7.87;80.05;92652.97;5093236;28;19931;-87
2020/12/30 04:35:39;;;;;;;0.50;0.20;;;;;;;7.71;79.91;92626.91;5093727;28;20056;-87
2020/12/30 04:38:05;;;;;;;;;;;;;;;7.93;79.88;92652.13;5093844;28;20486;-86
2020/12/30 04:40:32;;;;;;;1.05;0.52;;;;;;;7.92;79.85;92654.91;5093844;28;19920;-87
2020/12/30 04:43:04;;;;;;;1.25;0.30;;;;;;;7.92;79.79;92653.09;5093437;28;20518;-86
2020/12/30 04:45:34;;;;;;;1.27;0.47;;;;;;;7.83;79.77;92641.56;5093321;28;20048;-87
2020/12/30 04:48:01;;;;;;;2.90;0.70;;;;;;;7.98;79.55;92657.41;5093516;28;20490;-87
2020/12/30 04:50:28;;;;;;;1.17;0.38;;;;;;;7.91;79.40;92638.75;5109080;28;20052;-89
2020/12/30 04:52:55;;;;;;;3.60;0.73;;;;;;;8.04;78.89;92652.47;5113523;28;20043;-86
2020/12/30 04:55:24;;;;;;;1.77;0.43;;;;;;;8.05;79.17;92646.34;5113739;28;20110;-87
2020/12/30 04:57:58;;;;;;;2.45;0.47;;;;;;;8.02;79.38;92645.75;5113202;28;20063;-86
2020/12/30 05:00:25;;;;;;;0.28;0.13;;;;;;;7.87;79.63;92632.50;5113391;28;20104;-86
2020/12/30 05:02:53;;;;;;;0.98;0.40;;;;;;;7.91;79.71;92638.75;5113138;28;20048;-87
2020/12/30 05:05:20;;;;;;;1.08;0.40;;;;;;;7.93;79.96;92641.13;5113108;28;20047;-86
2020/12/30 05:07:47;;;;;;;0.80;0.40;;;;;;;7.85;80.25;92647.25;5113319;28;20057;-87
2020/12/30 05:10:15;;;;;;;1.27;0.52;;;;;;;7.79;80.68;92650.63;5113124;28;20046;-86
2020/12/30 05:12:41;;;;;;;1.25;0.57;;;;;;;7.72;80.70;92653.22;5113162;28;20044;-87
2020/12/30 05:15:08;;;;;;;2.15;0.80;;;;;;;7.52;81.43;92638.00;5113159;28;20044;-86
2020/12/30 05:17:35;;;;;;;1.52;0.38;;;;;;;7.67;81.42;92663.28;5113003;28;20044;-88
2020/12/30 05:20:02;;;;;;;0.93;0.50;;;;;;;7.60;81.89;92663.34;5112754;28;20050;-88
2020/12/30 05:22:28;;;;;;;2.67;0.60;;;;;;;7.60;81.87;92661.53;5112713;28;20066;-87
2020/12/30 05:24:55;;;;;;;1.55;0.30;;;;;;;7.58;82.16;92644.84;5112417;28;20552;-88
2020/12/30 05:27:22;;;;;;;3.15;1.23;;;;;;;7.59;82.23;92654.09;5112642;28;20391;-87
2020/12/30 05:29:51;;;;;;;1.50;0.60;;;;;;;7.56;82.48;92647.63;5112590;28;20576;-86
2020/12/30 05:32:18;;;;;;;3.10;1.20;;;;;;;7.48;83.09;92637.63;5112594;28;20048;-86
2020/12/30 05:34:46;;;;;;;1.92;0.70;;;;;;;7.51;83.48;92641.53;5112764;28;20054;-86
2020/12/30 05:37:15;;;;;;;2.55;0.70;;;;;;;7.48;83.17;92637.63;5112615;28;20051;-86
2020/12/30 05:39:41;;;;;;;3.03;0.90;;;;;;;7.49;83.43;92651.97;5112319;28;20077;-86
2020/12/30 05:42:12;;;;;;;4.88;1.20;;;;;;;7.43;83.56;92640.81;5112378;28;20067;-89
2020/12/30 05:44:38;;;;;;;1.80;0.60;;;;;;;7.53;82.86;92648.03;5112260;28;20051;-87
2020/12/30 05:47:12;;;;;;;3.83;1.00;;;;;;;7.29;82.64;92611.19;5112266;28;20109;-85
2020/12/30 05:49:40;;;;;;;1.42;0.80;;;;;;;7.59;82.61;92654.09;5112426;28;20055;-86
2020/12/30 05:52:21;;;;;;;0.80;0.47;;;;;;;7.61;82.59;92658.03;5111945;28;20043;-86
2020/12/30 05:54:54;;;;;;;1.67;0.88;;;;;;;7.33;82.41;92617.47;5111918;28;20050;-86
2020/12/30 05:57:25;;;;;;;3.42;1.02;;;;;;;7.59;83.26;92659.22;5112152;28;20050;-87
2020/12/30 05:59:52;;;;;;;3.83;1.10;;;;;;;7.56;83.63;92649.38;5112080;28;20047;-86
2020/12/30 06:02:25;;;;;;;7.22;1.00;;;;;;;7.60;83.47;92661.53;5111793;28;20043;-87
2020/12/30 06:04:52;;;;;;;1.55;1.25;;;;;;;7.64;83.47;92663.72;5111775;28;20490;-86
2020/12/30 06:07:20;;;;;;;6.35;1.52;;;;;;;7.65;83.57;92666.06;5112341;28;20071;-87
2020/12/30 06:09:55;;;;;;;1.92;1.00;;;;;;;7.65;83.84;92660.94;5111845;28;20443;-86
2020/12/30 06:12:26;;;;;;;5.15;1.58;;;;;;;7.68;83.85;92662.31;5111557;28;20043;-87
2020/12/30 06:14:53;;;;;;;3.45;1.10;;;;;;;7.77;83.59;92667.97;5111946;28;20047;-87
2020/12/30 06:17:27;;;;;;;1.42;0.57;;;;;;;7.82;83.68;92668.13;5111571;28;20436;-86
2020/12/30 06:19:55;;;;;;;3.90;1.10;;;;;;;7.77;83.36;92665.41;5111708;28;20414;-86
2020/12/30 06:22:24;;;;;;;2.60;0.85;;;;;;;7.78;83.41;92649.84;5111698;28;20055;-87
2020/12/30 06:24:51;;;;;;;2.28;0.90;;;;;;;7.95;82.95;92662.13;5111495;28;20051;-87
2020/12/30 06:27:26;;;;;;;2.03;1.30;;;;;;;7.97;82.46;92666.06;5111522;28;20074;-86
2020/12/30 06:29:56;;;;;;;1.83;0.65;;;;;;;7.91;82.51;92658.44;5111494;28;20055;-87
2020/12/30 06:32:33;;;;;;;0.98;0.47;;;;;;;8.06;82.25;92678.59;5111780;28;20044;-87
2020/12/30 06:35:02;;;;;;;3.92;0.82;;;;;;;8.05;81.67;92674.50;5111772;28;20536;-87
2020/12/30 06:37:32;;;;;;;4.05;0.95;;;;;;;8.10;80.94;92677.97;5111323;28;20158;-85
2020/12/30 06:40:17;;;;;;;0.82;0.30;;;;;;;8.17;81.04;92685.63;5111271;28;20051;-87
2020/12/30 06:42:44;;;;;;;2.63;0.98;;;;;;;8.21;81.21;92691.09;5111331;28;20097;-86
2020/12/30 06:45:13;;;;;;;2.38;1.08;;;;;;;8.23;80.72;92684.78;5111209;28;20058;-87
2020/12/30 06:48:00;;;;;;;2.10;1.23;;;;;;;8.23;79.95;92684.78;5111336;28;20546;-86
2020/12/30 06:50:29;;;;;;;2.45;1.25;;;;;;;8.45;79.50;92709.22;5111526;28;20055;-87
2020/12/30 06:52:58;;;;;;;1.42;0.75;;;;;;;8.41;80.01;92703.75;5111460;28;20060;-87
2020/12/30 06:55:45;;;;;;;4.65;1.38;;;;;;;8.43;80.05;92707.66;5111217;28;20074;-87
2020/12/30 06:58:44;;;;;;;4.95;2.67;;;;;;;8.53;80.04;92709.78;5111263;28;20040;-87
2020/12/30 07:01:11;;;;;;;3.25;2.10;;;;;;;8.37;80.10;92708.50;5111571;28;21076;-87
2020/12/30 07:03:37;;;;;;;8.88;2.33;;;;;;;8.39;80.39;92711.63;5111380;28;20047;-86
2020/12/30 07:06:24;;;;;;;5.05;2.58;;;;;;;8.45;80.57;92702.34;5111291;28;20056;-87
2020/12/30 07:08:51;;;;;;;8.48;2.63;;;;;;;8.52;80.88;92717.69;5111196;28;20055;-87
2020/12/30 07:11:45;;;;;;;17.73;7.53;;;;;;;8.52;80.56;92715.13;5110949;28;20138;-88
2020/12/30 07:14:13;;;;;;;22.10;10.20;;;;;;;8.63;80.04;92722.13;5111270;28;20052;-87
2020/12/30 07:16:42;;;;;;;14.60;7.95;;;;;;;8.74;80.13;92722.44;5111732;28;20092;-86
2020/12/30 07:19:17;;;;;;;11.77;4.18;;;;;;;8.74;79.24;92720.66;4557453;28;20002903;-86
2020/12/30 07:22:01;;;;;;;67.68;22.90;;;;;;;8.85;78.38;92732.00;5110833;28;20647;-86
2020/12/30 07:24:30;;;;;;;75.72;28.90;;;;;;;8.74;78.60;92723.22;5114827;28;20527;-86
2020/12/30 07:26:59;;;;;;;197.48;79.38;;;;;;;8.85;79.17;92726.09;5115245;28;20544;-86
2020/12/30 07:29:26;;;;;;;471.20;213.18;;;;;;;8.91;79.27;92736.28;5115165;28;20047;-89
2020/12/30 07:31:55;;;;;;;317.92;126.15;;;;;;;8.90;79.20;92729.59;5114865;28;20052;-87
2020/12/30 07:34:24;;;;;;;180.60;64.93;;;;;;;8.92;79.41;92737.84;5114944;28;20052;-87
2020/12/30 07:36:51;;;;;;;101.45;38.22;;;;;;;8.83;79.42;92721.16;5114563;28;20097;-86
2020/12/30 07:39:26;;;;;;;40.38;14.70;;;;;;;8.94;79.57;92729.94;5114607;28;20047;-86
2020/12/30 07:41:53;;;;;;;185.55;59.75;;;;;;;9.03;79.94;92733.78;5114671;28;20043;-88
2020/12/30 07:44:20;;;;;;;240.43;75.47;;;;;;;8.95;79.77;92709.22;5114767;28;20063;-88
2020/12/30 07:46:46;;;;;;;351.80;115.97;;;;;;;9.13;79.23;92738.44;5114666;28;20410;-87
2020/12/30 07:49:14;;;;;;;;;;;;;;;9.15;78.56;92733.88;5116040;28;20059;-86
2020/12/30 07:51:50;;;;;;;114.05;40.20;;;;;;;9.11;79.33;92737.84;5115328;28;19920;-85
2020/12/30 07:54:17;;;;;;;82.28;27.35;;;;;;;9.19;79.28;92732.47;5114867;28;20043;-86
2020/12/30 07:56:44;;;;;;;249.52;80.70;;;;;;;9.29;78.50;92734.53;5114551;28;20054;-87
2020/12/30 07:59:19;;;;;;;122.35;42.33;;;;;;;9.32;78.32;92730.75;5114293;28;20054;-86
2020/12/30 08:01:53;;;;;;;49.63;16.90;;;;;;;9.38;78.04;92737.59;5114474;28;20044;-87
2020/12/30 08:04:21;;;;;;;93.13;29.67;;;;;;;9.47;78.06;92728.63;5114189;28;20059;-86
2020/12/30 08:06:48;;;;;;;148.65;41.38;;;;;;;9.54;77.16;92743.16;5112797;28;20075;-86
2020/12/30 08:09:14;;;;;;;;;;;;;;;9.53;77.83;92739.78;5114769;28;20043;-88
2020/12/30 08:11:50;;;;;;;149.73;44.28;;;;;;;9.49;78.19;92742.00;5112736;28;19927;-87
2020/12/30 08:14:22;;;;;;;98.20;28.17;;;;;;;9.49;78.42;92742.00;5113651;28;20048;-87
2020/12/30 08:17:05;;;;;;;44.53;14.63;;;;;;;9.44;78.78;92748.78;5113734;28;20079;-87
2020/12/30 08:19:35;;;;;;;109.65;32.17;;;;;;;9.39;79.37;92751.97;5114177;28;20051;-88
2020/12/30 08:22:05;;;;;;;138.65;41.63;;;;;;;9.39;79.62;92735.81;5113958;28;20052;-87
2020/12/30 08:24:32;;;;;;;126.20;35.83;;;;;;;9.59;79.64;92746.63;5113983;28;20134;-88
2020/12/30 08:26:59;;;;;;;82.18;21.85;;;;;;;9.72;79.52;92744.94;5113986;28;20548;-87
2020/12/30 08:29:31;;;;;;;8.85;3.78;;;;;;;9.58;79.53;92713.53;5113793;28;20417;-86
2020/12/30 08:32:03;;;;;;;22.25;5.45;;;;;;;9.73;79.31;92731.09;5113773;28;20097;-88
2020/12/30 08:34:35;;;;;;;27.85;8.90;;;;;;;9.79;78.65;92739.69;5113192;28;20044;-88
2020/12/30 08:37:05;;;;;;;6.50;2.53;;;;;;;9.78;78.65;92731.25;5113500;27;20398;-88
2020/12/30 08:39:35;;;;;;;34.10;8.60;;;;;;;9.82;78.55;92731.59;5117381;27;20131;-87
2020/12/30 08:42:08;;;;;;;30.67;7.88;;;;;;;9.88;78.54;92728.16;5113604;28;20044;-87
2020/12/30 08:44:50;;;;;;;19.85;7.10;;;;;;;9.95;77.96;92726.28;5113480;28;20097;-87
2020/12/30 08:47:29;;;;;;;33.97;7.70;;;;;;;9.95;77.62;92715.25;5113379;28;20047;-87
2020/12/30 08:49:59;;;;;;;8.82;2.95;;;;;;;9.81;77.29;92687.19;5113504;28;20048;-87
2020/12/30 08:52:25;;;;;;;10.15;3.83;;;;;;;10.06;77.50;92719.63;5113697;28;20401;-89
2020/12/30 08:55:00;;;;;;;;;;;;;;;10.13;77.41;92714.41;5114199;28;20101;-87
2020/12/30 08:57:27;;;;;;;6.72;2.55;;;;;;;10.20;76.96;92724.56;5113191;28;19939;-87
2020/12/30 09:00:10;;;;;;;;;;;;;;;10.12;76.62;92721.31;5114113;28;20050;-89
2020/12/30 09:03:10;;;;;;;11.48;4.50;;;;;;;10.23;77.19;92708.75;5113418;28;19948;-87
2020/12/30 09:05:38;;;;;;;18.88;5.03;;;;;;;10.35;76.56;92701.06;5113774;28;20066;-87
2020/12/30 09:08:11;;;;;;;7.70;2.75;;;;;;;10.33;76.80;92695.38;5113143;28;20047;-87
2020/12/30 09:10:37;;;;;;;16.92;4.85;;;;;;;10.49;76.80;92687.06;5113172;28;20052;-87
2020/12/30 09:13:10;;;;;;;;;;;;;;;10.63;75.82;92682.50;5113714;28;20044;-86
2020/12/30 09:15:42;;;;;;;3.97;2.00;;;;;;;10.60;75.68;92674.44;5113031;28;19920;-87
2020/12/30 09:18:10;;;;;;;9.38;2.42;;;;;;;10.68;74.12;92674.91;5112818;28;20058;-87
2020/12/30 09:20:44;;;;;;;11.90;4.47;;;;;;;10.77;73.49;92674.56;5113167;28;20051;-87
2020/12/30 09:23:10;;;;;;;4.00;1.67;;;;;;;10.81;72.91;92680.81;5113059;28;20055;-88
2020/12/30 09:25:42;;;;;;;;;;;;;;;10.87;73.46;92667.06;5113618;28;20051;-86
2020/12/30 09:28:15;;;;;;;3.38;1.58;;;;;;;10.98;72.88;92675.00;5112990;28;19920;-87
2020/12/30 09:30:43;;;;;;;10.43;3.70;;;;;;;11.15;72.21;92668.16;5112858;28;20044;-89
2020/12/30 09:33:18;;;;;;;8.20;2.47;;;;;;;11.36;72.04;92671.13;5113158;28;20046;-88
2020/12/30 09:35:48;;;;;;;2.20;0.73;;;;;;;11.40;70.34;92658.59;5113230;28;20092;-85
2020/12/30 09:38:18;;;;;;;1.63;0.75;;;;;;;11.45;71.28;92661.28;5113109;28;20100;-87
2020/12/30 09:40:51;;;;;;;5.32;1.90;;;;;;;11.60;72.14;92668.50;5114805;28;20055;-86
2020/12/30 09:43:19;;;;;;;5.07;1.23;;;;;;;11.63;71.10;92663.66;5114730;28;20044;-85
2020/12/30 09:45:49;;;;;;;2.08;0.68;;;;;;;11.58;70.14;92644.81;5112345;28;20044;-86
2020/12/30 09:48:19;;;;;;;2.00;1.27;;;;;;;11.90;70.03;92655.41;5112908;28;20052;-87
2020/12/30 09:50:57;;;;;;;3.10;0.82;;;;;;;11.88;69.62;92648.91;5113057;28;20060;-89
2020/12/30 09:53:23;;;;;;;0.93;0.50;;;;;;;11.96;70.03;92655.47;5112808;28;20075;-87
2020/12/30 09:55:54;;;;;;;1.15;0.47;;;;;;;11.65;69.19;92590.63;5112869;28;20043;-90
2020/12/30 09:58:21;;;;;;;1.75;0.45;;;;;;;11.72;69.55;92592.03;5112871;28;20043;-88
2020/12/30 10:00:51;;;;;;;3.60;1.17;;;;;;;12.20;68.03;92642.50;5113223;28;20044;-89
2020/12/30 10:03:18;;;;;;;6.00;2.67;;;;;;;12.39;67.77;92637.91;5112851;28;20413;-90
2020/12/30 10:05:44;;;;;;;;;;;;;;;12.38;66.98;92613.97;5113536;28;20558;-88
2020/12/30 10:08:13;;;;;;;3.05;1.58;;;;;;;12.33;67.74;92589.91;5112171;28;20365;-88
2020/12/30 10:10:39;;;;;;;2.47;1.10;;;;;;;12.46;67.46;92617.16;5112453;28;20482;-87
2020/12/30 10:13:06;;;;;;;;;;;;;;;12.52;66.39;92619.56;5112847;28;20044;-89
2020/12/30 10:15:33;;;;;;;1.50;0.63;;;;;;;12.56;66.59;92599.28;5112621;28;20015;-88
2020/12/30 10:18:02;;;;;;;3.65;1.27;;;;;;;12.88;64.95;92613.34;5112355;28;20519;-89
2020/12/30 10:20:29;;;;;;;3.88;0.82;;;;;;;12.85;64.84;92604.28;5111902;28;20135;-91
2020/12/30 10:22:56;;;;;;;1.23;0.43;;;;;;;12.97;64.12;92611.91;5113678;28;20039;-90
2020/12/30 10:25:25;;;;;;;;;;;;;;;13.01;63.48;92600.09;5112345;28;20055;-91
2020/12/30 10:28:01;;;;;;;;;;;;;;;;;;;;;
2020/12/30 10:30:38;;;;;;;0.75;0.25;;;;;;;12.97;62.29;92611.91;5110782;28;20044;-89
2020/12/30 10:33:21;;;;;;;1.60;0.65;;;;;;;12.93;61.70;92596.16;5109367;28;20043;-89
2020/12/30 10:35:51;;;;;;;0.95;0.57;;;;;;;12.92;62.70;92598.97;5109745;28;20150;-89
2020/12/30 10:38:19;;;;;;;3.25;0.70;;;;;;;12.99;63.66;92586.66;5110574;28;20051;-89
2020/12/30 10:40:48;;;;;;;5.38;0.60;;;;;;;12.88;62.76;92577.25;5110776;28;20048;-86
2020/12/30 10:43:14;;;;;;;1.38;0.60;;;;;;;12.65;62.04;92537.81;5110728;28;20044;-90
2020/12/30 10:45:40;;;;;;;;;;;;;;;12.75;61.79;92574.00;5111064;28;20405;-87
2020/12/30 10:48:10;;;;;;;1.50;0.50;;;;;;;12.63;61.59;92565.63;5111110;28;20374;-85
2020/12/30 10:50:37;;;;;;;1.10;0.50;;;;;;;12.70;62.38;92564.41;5108186;28;20135;-88
2020/12/30 10:53:03;;;;;;;;;;;;;;;12.83;62.37;92576.16;5111311;28;20042;-89
2020/12/30 10:55:29;;;;;;;1.02;0.40;;;;;;;12.82;61.22;92579.75;5110304;28;20366;-88
2020/12/30 10:57:55;;;;;;;;;;;;;;;12.98;61.65;92579.16;5116439;28;20481;-89
2020/12/30 11:00:21;;;;;;;4.82;2.33;;;;;;;13.04;61.37;92563.53;5117304;28;19920;-89
2020/12/30 11:02:50;;;;;;;;;;;;;;;13.05;61.09;92565.06;5119261;28;20073;-86
2020/12/30 11:05:21;;;;;;;1.77;0.68;;;;;;;13.06;61.22;92545.25;5118278;28;20460;-89
2020/12/30 11:08:02;;;;;;;2.85;1.15;;;;;;;13.19;60.70;92562.91;5116041;28;20401;-88
2020/12/30 11:10:30;;;;;;;1.27;0.63;;;;;;;13.09;59.21;92555.84;5115892;28;20086;-87
2020/12/30 11:12:56;;;;;;;2.63;1.13;;;;;;;13.13;60.19;92553.56;5117835;28;20043;-85
2020/12/30 11:15:26;;;;;;;;;;;;;;;12.97;60.81;92550.03;5118753;28;20048;-90
2020/12/30 11:17:53;;;;;;;1.73;0.80;;;;;;;12.62;60.75;92528.75;5117762;28;19965;-85
2020/12/30 11:20:21;;;;;;;;;;;;;;;12.82;61.99;92556.56;5118050;28;20104;-87
2020/12/30 11:22:49;;;;;;;2.33;0.95;;;;;;;12.93;61.33;92560.06;5117869;28;19919;-86
2020/12/30 11:25:17;;;;;;;2.15;0.93;;;;;;;12.76;60.66;92534.34;5117666;28;20047;-87
2020/12/30 11:27:45;;;;;;;13.70;3.47;;;;;;;12.74;61.42;92544.09;5113209;27;20135;-87
2020/12/30 11:30:11;;;;;;;2.78;1.02;;;;;;;12.69;61.55;92549.19;5118074;28;20044;-86
2020/12/30 11:32:39;;;;;;;;;;;;;;;12.42;61.40;92555.78;5117886;28;20047;-90
2020/12/30 11:35:06;;;;;;;6.05;0.90;;;;;;;12.50;59.75;92551.28;5117732;28;19919;-87
2020/12/30 11:37:40;;;;;;;3.13;1.48;;;;;;;12.63;59.98;92548.34;5117716;28;20124;-87
2020/12/30 11:40:11;;;;;;;6.05;1.23;;;;;;;12.84;59.28;92551.19;5117523;28;20109;-86
2020/12/30 11:42:37;;;;;;;2.05;0.90;;;;;;;12.72;59.69;92568.56;5117824;28;20047;-86
2020/12/30 11:45:07;;;;;;;6.18;1.38;;;;;;;12.63;59.78;92550.91;5117562;28;20047;-86
2020/12/30 11:47:36;;;;;;;2.47;1.20;;;;;;;12.53;60.17;92536.13;5118107;28;20075;-88
2020/12/30 11:50:03;;;;;;;2.92;1.30;;;;;;;12.73;59.56;92537.38;5117701;28;20100;-88
2020/12/30 11:52:30;;;;;;;6.40;2.15;;;;;;;12.89;60.40;92546.09;5117885;28;20051;-87
2020/12/30 11:54:59;;;;;;;;;;;;;;;12.89;59.82;92542.72;5110883;28;20444;-91
2020/12/30 11:57:28;;;;;;;2.67;0.90;;;;;;;12.83;59.00;92523.84;5097478;28;20317;-87
2020/12/30 11:59:55;;;;;;;4.28;1.13;;;;;;;12.87;59.08;92532.63;5097547;28;20127;-87